sensor_id;sensor_type;location;lat;lon;timestamp;P1;durP1;ratioP1;P2;durP2;ratioP2
42066;SDS011;27734;47.028;28.820;2022-11-20T00:00:23;36.67;;;18.97;;
42066;SDS011;27734;47.028;28.820;2022-11-20T00:03:14;40.90;;;19.20;;
42066;SDS011;27734;47.028;28.820;2022-11-20T00:05:46;35.87;;;18.53;;
42066;SDS011;27734;47.028;28.820;2022-11-20T00:08:17;39.50;;;20.63;;
42066;SDS011;27734;47.028;28.820;2022-11-20T00:10:48;41.10;;;20.23;;
42066;SDS011;27734;47.028;28.820;2022-11-20T00:13:19;33.53;;;17.87;;
42066;SDS011;27734;47.028;28.820;2022-11-20T00:15:57;39.27;;;19.43;;
42066;SDS011;27734;47.028;28.820;2022-11-20T00:18:29;39.23;;;20.13;;
42066;SDS011;27734;47.028;28.820;2022-11-20T00:21:02;36.30;;;20.00;;
42066;SDS011;27734;47.028;28.820;2022-11-20T00:23:34;35.93;;;19.13;;
42066;SDS011;27734;47.028;28.820;2022-11-20T00:26:06;37.37;;;19.17;;
42066;SDS011;27734;47.028;28.820;2022-11-20T00:28:42;33.00;;;18.33;;
42066;SDS011;27734;47.028;28.820;2022-11-20T00:31:18;37.57;;;20.80;;
42066;SDS011;27734;47.028;28.820;2022-11-20T00:33:49;35.10;;;20.00;;
42066;SDS011;27734;47.028;28.820;2022-11-20T00:36:21;37.97;;;19.60;;
42066;SDS011;27734;47.028;28.820;2022-11-20T00:38:54;39.77;;;20.53;;
42066;SDS011;27734;47.028;28.820;2022-11-20T00:41:28;33.53;;;19.00;;
42066;SDS011;27734;47.028;28.820;2022-11-20T00:44:00;37.45;;;20.35;;
42066;SDS011;27734;47.028;28.820;2022-11-20T00:46:31;37.37;;;20.33;;
42066;SDS011;27734;47.028;28.820;2022-11-20T00:49:02;37.20;;;20.20;;
42066;SDS011;27734;47.028;28.820;2022-11-20T00:51:33;35.83;;;18.83;;
42066;SDS011;27734;47.028;28.820;2022-11-20T00:54:07;37.93;;;19.47;;
42066;SDS011;27734;47.028;28.820;2022-11-20T00:59:09;37.30;;;19.20;;
42066;SDS011;27734;47.028;28.820;2022-11-20T01:01:42;36.90;;;19.92;;
42066;SDS011;27734;47.028;28.820;2022-11-20T01:04:14;36.83;;;19.43;;
42066;SDS011;27734;47.028;28.820;2022-11-20T01:06:45;37.83;;;20.07;;
42066;SDS011;27734;47.028;28.820;2022-11-20T01:09:16;33.60;;;17.80;;
42066;SDS011;27734;47.028;28.820;2022-11-20T01:11:47;38.30;;;20.00;;
42066;SDS011;27734;47.028;28.820;2022-11-20T01:14:19;36.03;;;19.23;;
42066;SDS011;27734;47.028;28.820;2022-11-20T01:16:50;36.90;;;20.03;;
42066;SDS011;27734;47.028;28.820;2022-11-20T01:19:22;41.90;;;21.40;;
42066;SDS011;27734;47.028;28.820;2022-11-20T01:21:54;38.40;;;19.73;;
42066;SDS011;27734;47.028;28.820;2022-11-20T01:24:25;38.40;;;20.50;;
42066;SDS011;27734;47.028;28.820;2022-11-20T01:26:57;36.27;;;18.40;;
42066;SDS011;27734;47.028;28.820;2022-11-20T01:29:28;38.75;;;20.00;;
42066;SDS011;27734;47.028;28.820;2022-11-20T01:31:59;39.27;;;21.07;;
42066;SDS011;27734;47.028;28.820;2022-11-20T01:34:30;39.83;;;21.10;;
42066;SDS011;27734;47.028;28.820;2022-11-20T01:37:01;35.00;;;18.33;;
42066;SDS011;27734;47.028;28.820;2022-11-20T01:39:33;38.27;;;19.83;;
42066;SDS011;27734;47.028;28.820;2022-11-20T01:42:04;36.43;;;18.43;;
42066;SDS011;27734;47.028;28.820;2022-11-20T01:44:56;34.87;;;18.37;;
42066;SDS011;27734;47.028;28.820;2022-11-20T01:47:29;39.10;;;19.97;;
42066;SDS011;27734;47.028;28.820;2022-11-20T01:50:06;38.93;;;21.07;;
42066;SDS011;27734;47.028;28.820;2022-11-20T01:52:44;38.17;;;19.47;;
42066;SDS011;27734;47.028;28.820;2022-11-20T01:55:19;33.40;;;17.07;;
42066;SDS011;27734;47.028;28.820;2022-11-20T01:57:56;38.87;;;21.27;;
42066;SDS011;27734;47.028;28.820;2022-11-20T02:00:40;37.57;;;20.00;;
42066;SDS011;27734;47.028;28.820;2022-11-20T02:03:12;36.40;;;18.00;;
42066;SDS011;27734;47.028;28.820;2022-11-20T02:05:46;35.77;;;18.60;;
42066;SDS011;27734;47.028;28.820;2022-11-20T02:08:22;34.00;;;17.60;;
42066;SDS011;27734;47.028;28.820;2022-11-20T02:10:54;36.03;;;18.30;;
42066;SDS011;27734;47.028;28.820;2022-11-20T02:13:25;35.40;;;19.83;;
42066;SDS011;27734;47.028;28.820;2022-11-20T02:16:16;32.13;;;17.13;;
42066;SDS011;27734;47.028;28.820;2022-11-20T02:18:52;34.47;;;18.63;;
42066;SDS011;27734;47.028;28.820;2022-11-20T02:21:30;34.08;;;17.62;;
42066;SDS011;27734;47.028;28.820;2022-11-20T02:24:07;32.50;;;17.60;;
42066;SDS011;27734;47.028;28.820;2022-11-20T02:26:44;36.77;;;18.23;;
42066;SDS011;27734;47.028;28.820;2022-11-20T02:29:23;36.33;;;18.83;;
42066;SDS011;27734;47.028;28.820;2022-11-20T02:31:57;32.03;;;16.60;;
42066;SDS011;27734;47.028;28.820;2022-11-20T02:34:30;35.77;;;18.47;;
42066;SDS011;27734;47.028;28.820;2022-11-20T02:37:01;31.93;;;16.90;;
42066;SDS011;27734;47.028;28.820;2022-11-20T02:39:32;33.60;;;17.00;;
42066;SDS011;27734;47.028;28.820;2022-11-20T02:42:04;34.13;;;17.13;;
42066;SDS011;27734;47.028;28.820;2022-11-20T02:44:35;36.35;;;16.95;;
42066;SDS011;27734;47.028;28.820;2022-11-20T02:47:06;32.93;;;16.97;;
42066;SDS011;27734;47.028;28.820;2022-11-20T02:49:37;32.60;;;15.53;;
42066;SDS011;27734;47.028;28.820;2022-11-20T02:52:09;30.30;;;15.70;;
42066;SDS011;27734;47.028;28.820;2022-11-20T02:54:40;34.23;;;16.53;;
42066;SDS011;27734;47.028;28.820;2022-11-20T02:57:11;32.47;;;17.07;;
42066;SDS011;27734;47.028;28.820;2022-11-20T02:59:42;32.03;;;15.60;;
42066;SDS011;27734;47.028;28.820;2022-11-20T03:02:13;31.30;;;15.23;;
42066;SDS011;27734;47.028;28.820;2022-11-20T03:04:44;33.00;;;17.07;;
42066;SDS011;27734;47.028;28.820;2022-11-20T03:07:15;34.07;;;16.87;;
42066;SDS011;27734;47.028;28.820;2022-11-20T03:09:46;32.23;;;16.73;;
42066;SDS011;27734;47.028;28.820;2022-11-20T03:12:18;34.75;;;17.90;;
42066;SDS011;27734;47.028;28.820;2022-11-20T03:14:49;33.83;;;17.43;;
42066;SDS011;27734;47.028;28.820;2022-11-20T03:17:20;35.13;;;17.53;;
42066;SDS011;27734;47.028;28.820;2022-11-20T03:19:51;35.80;;;17.40;;
42066;SDS011;27734;47.028;28.820;2022-11-20T03:22:22;33.77;;;17.60;;
42066;SDS011;27734;47.028;28.820;2022-11-20T03:24:53;29.80;;;15.17;;
42066;SDS011;27734;47.028;28.820;2022-11-20T03:27:24;37.63;;;18.47;;
42066;SDS011;27734;47.028;28.820;2022-11-20T03:29:56;31.30;;;16.00;;
42066;SDS011;27734;47.028;28.820;2022-11-20T03:32:27;33.63;;;17.53;;
42066;SDS011;27734;47.028;28.820;2022-11-20T03:34:58;33.00;;;16.50;;
42066;SDS011;27734;47.028;28.820;2022-11-20T03:37:29;32.67;;;16.93;;
42066;SDS011;27734;47.028;28.820;2022-11-20T03:40:02;32.63;;;16.47;;
42066;SDS011;27734;47.028;28.820;2022-11-20T03:42:35;31.33;;;15.93;;
42066;SDS011;27734;47.028;28.820;2022-11-20T03:45:16;33.00;;;15.90;;
42066;SDS011;27734;47.028;28.820;2022-11-20T03:47:48;29.13;;;14.87;;
42066;SDS011;27734;47.028;28.820;2022-11-20T03:50:19;32.20;;;16.20;;
42066;SDS011;27734;47.028;28.820;2022-11-20T03:52:50;32.63;;;16.37;;
42066;SDS011;27734;47.028;28.820;2022-11-20T03:55:22;29.43;;;14.23;;
42066;SDS011;27734;47.028;28.820;2022-11-20T03:57:53;33.93;;;17.10;;
42066;SDS011;27734;47.028;28.820;2022-11-20T04:00:39;30.63;;;15.37;;
42066;SDS011;27734;47.028;28.820;2022-11-20T04:03:10;32.67;;;17.20;;
42066;SDS011;27734;47.028;28.820;2022-11-20T04:05:41;32.43;;;16.67;;
42066;SDS011;27734;47.028;28.820;2022-11-20T04:08:13;32.20;;;16.67;;
42066;SDS011;27734;47.028;28.820;2022-11-20T04:10:44;34.07;;;17.23;;
42066;SDS011;27734;47.028;28.820;2022-11-20T04:13:15;31.77;;;16.70;;
42066;SDS011;27734;47.028;28.820;2022-11-20T04:15:46;34.80;;;17.47;;
42066;SDS011;27734;47.028;28.820;2022-11-20T04:18:17;32.53;;;16.43;;
42066;SDS011;27734;47.028;28.820;2022-11-20T04:20:48;33.33;;;17.30;;
42066;SDS011;27734;47.028;28.820;2022-11-20T04:23:22;30.63;;;13.60;;
42066;SDS011;27734;47.028;28.820;2022-11-20T04:25:53;31.83;;;17.37;;
42066;SDS011;27734;47.028;28.820;2022-11-20T04:28:29;32.40;;;16.53;;
42066;SDS011;27734;47.028;28.820;2022-11-20T04:31:07;34.27;;;16.80;;
42066;SDS011;27734;47.028;28.820;2022-11-20T04:33:39;32.75;;;17.00;;
42066;SDS011;27734;47.028;28.820;2022-11-20T04:36:12;31.63;;;16.07;;
42066;SDS011;27734;47.028;28.820;2022-11-20T04:38:44;32.38;;;17.27;;
42066;SDS011;27734;47.028;28.820;2022-11-20T04:41:20;35.70;;;17.03;;
42066;SDS011;27734;47.028;28.820;2022-11-20T04:43:53;31.68;;;16.57;;
42066;SDS011;27734;47.028;28.820;2022-11-20T04:46:27;32.50;;;17.73;;
42066;SDS011;27734;47.028;28.820;2022-11-20T04:48:59;32.07;;;16.40;;
42066;SDS011;27734;47.028;28.820;2022-11-20T04:51:31;31.17;;;16.20;;
42066;SDS011;27734;47.028;28.820;2022-11-20T04:54:02;32.10;;;16.00;;
42066;SDS011;27734;47.028;28.820;2022-11-20T04:56:34;33.20;;;17.23;;
42066;SDS011;27734;47.028;28.820;2022-11-20T04:59:05;31.83;;;16.50;;
42066;SDS011;27734;47.028;28.820;2022-11-20T05:01:36;32.10;;;17.07;;
42066;SDS011;27734;47.028;28.820;2022-11-20T05:04:07;30.03;;;15.03;;
42066;SDS011;27734;47.028;28.820;2022-11-20T05:06:38;30.83;;;15.90;;
42066;SDS011;27734;47.028;28.820;2022-11-20T05:09:11;30.30;;;15.90;;
42066;SDS011;27734;47.028;28.820;2022-11-20T05:11:42;30.03;;;14.33;;
42066;SDS011;27734;47.028;28.820;2022-11-20T05:14:13;29.40;;;14.93;;
42066;SDS011;27734;47.028;28.820;2022-11-20T05:16:44;29.70;;;16.07;;
42066;SDS011;27734;47.028;28.820;2022-11-20T05:19:15;28.50;;;14.10;;
42066;SDS011;27734;47.028;28.820;2022-11-20T05:21:46;29.65;;;14.80;;
42066;SDS011;27734;47.028;28.820;2022-11-20T05:24:18;26.90;;;12.60;;
42066;SDS011;27734;47.028;28.820;2022-11-20T05:26:51;27.73;;;13.20;;
42066;SDS011;27734;47.028;28.820;2022-11-20T05:29:22;25.95;;;13.05;;
42066;SDS011;27734;47.028;28.820;2022-11-20T05:31:54;27.10;;;13.47;;
42066;SDS011;27734;47.028;28.820;2022-11-20T05:34:25;28.17;;;14.03;;
42066;SDS011;27734;47.028;28.820;2022-11-20T05:36:56;29.70;;;15.00;;
42066;SDS011;27734;47.028;28.820;2022-11-20T05:39:27;29.70;;;15.20;;
42066;SDS011;27734;47.028;28.820;2022-11-20T05:42:00;30.17;;;15.10;;
42066;SDS011;27734;47.028;28.820;2022-11-20T05:44:49;29.10;;;14.33;;
42066;SDS011;27734;47.028;28.820;2022-11-20T05:47:20;28.63;;;14.07;;
42066;SDS011;27734;47.028;28.820;2022-11-20T05:49:51;29.90;;;14.13;;
42066;SDS011;27734;47.028;28.820;2022-11-20T05:52:22;25.33;;;13.10;;
42066;SDS011;27734;47.028;28.820;2022-11-20T05:54:54;27.07;;;13.80;;
42066;SDS011;27734;47.028;28.820;2022-11-20T05:57:25;29.63;;;13.57;;
42066;SDS011;27734;47.028;28.820;2022-11-20T05:59:56;29.45;;;15.45;;
42066;SDS011;27734;47.028;28.820;2022-11-20T06:02:27;29.70;;;15.10;;
42066;SDS011;27734;47.028;28.820;2022-11-20T06:04:58;26.53;;;12.33;;
42066;SDS011;27734;47.028;28.820;2022-11-20T06:07:29;26.43;;;13.70;;
42066;SDS011;27734;47.028;28.820;2022-11-20T06:10:00;27.63;;;14.00;;
42066;SDS011;27734;47.028;28.820;2022-11-20T06:12:32;26.47;;;13.77;;
42066;SDS011;27734;47.028;28.820;2022-11-20T06:15:03;26.15;;;12.70;;
42066;SDS011;27734;47.028;28.820;2022-11-20T06:17:36;25.67;;;13.03;;
42066;SDS011;27734;47.028;28.820;2022-11-20T06:20:08;25.20;;;13.70;;
42066;SDS011;27734;47.028;28.820;2022-11-20T06:22:40;27.25;;;13.65;;
42066;SDS011;27734;47.028;28.820;2022-11-20T06:25:11;26.67;;;13.50;;
42066;SDS011;27734;47.028;28.820;2022-11-20T06:27:43;26.63;;;13.90;;
42066;SDS011;27734;47.028;28.820;2022-11-20T06:30:14;27.13;;;13.73;;
42066;SDS011;27734;47.028;28.820;2022-11-20T06:32:46;29.35;;;15.10;;
42066;SDS011;27734;47.028;28.820;2022-11-20T06:35:17;27.00;;;13.73;;
42066;SDS011;27734;47.028;28.820;2022-11-20T06:37:48;25.03;;;13.33;;
42066;SDS011;27734;47.028;28.820;2022-11-20T06:40:19;25.30;;;12.30;;
42066;SDS011;27734;47.028;28.820;2022-11-20T06:42:50;26.17;;;12.27;;
42066;SDS011;27734;47.028;28.820;2022-11-20T06:45:22;28.15;;;14.05;;
42066;SDS011;27734;47.028;28.820;2022-11-20T06:47:53;25.80;;;13.80;;
42066;SDS011;27734;47.028;28.820;2022-11-20T06:50:26;25.00;;;13.23;;
42066;SDS011;27734;47.028;28.820;2022-11-20T06:52:57;25.15;;;11.10;;
42066;SDS011;27734;47.028;28.820;2022-11-20T06:55:34;23.27;;;11.20;;
42066;SDS011;27734;47.028;28.820;2022-11-20T06:58:05;22.70;;;11.10;;
42066;SDS011;27734;47.028;28.820;2022-11-20T07:00:37;22.20;;;11.40;;
42066;SDS011;27734;47.028;28.820;2022-11-20T07:03:08;21.10;;;10.90;;
42066;SDS011;27734;47.028;28.820;2022-11-20T07:05:41;23.30;;;11.07;;
42066;SDS011;27734;47.028;28.820;2022-11-20T07:08:13;23.67;;;12.17;;
42066;SDS011;27734;47.028;28.820;2022-11-20T07:10:44;23.70;;;11.27;;
42066;SDS011;27734;47.028;28.820;2022-11-20T07:13:15;23.40;;;11.50;;
42066;SDS011;27734;47.028;28.820;2022-11-20T07:15:46;24.90;;;12.63;;
42066;SDS011;27734;47.028;28.820;2022-11-20T07:18:17;22.50;;;11.40;;
42066;SDS011;27734;47.028;28.820;2022-11-20T07:20:49;22.30;;;11.47;;
42066;SDS011;27734;47.028;28.820;2022-11-20T07:23:20;22.70;;;11.53;;
42066;SDS011;27734;47.028;28.820;2022-11-20T07:25:51;22.90;;;11.20;;
42066;SDS011;27734;47.028;28.820;2022-11-20T07:28:22;23.03;;;11.43;;
42066;SDS011;27734;47.028;28.820;2022-11-20T07:30:53;23.17;;;11.47;;
42066;SDS011;27734;47.028;28.820;2022-11-20T07:33:24;22.53;;;12.00;;
42066;SDS011;27734;47.028;28.820;2022-11-20T07:35:56;21.07;;;10.67;;
42066;SDS011;27734;47.028;28.820;2022-11-20T07:38:29;23.45;;;10.85;;
42066;SDS011;27734;47.028;28.820;2022-11-20T07:41:00;23.40;;;11.23;;
42066;SDS011;27734;47.028;28.820;2022-11-20T07:43:31;25.00;;;11.60;;
42066;SDS011;27734;47.028;28.820;2022-11-20T07:46:02;22.70;;;10.70;;
42066;SDS011;27734;47.028;28.820;2022-11-20T07:48:33;23.30;;;11.83;;
42066;SDS011;27734;47.028;28.820;2022-11-20T07:51:05;22.93;;;11.47;;
42066;SDS011;27734;47.028;28.820;2022-11-20T07:53:36;20.27;;;10.00;;
42066;SDS011;27734;47.028;28.820;2022-11-20T07:56:07;21.63;;;10.77;;
42066;SDS011;27734;47.028;28.820;2022-11-20T07:58:39;22.77;;;10.90;;
42066;SDS011;27734;47.028;28.820;2022-11-20T08:01:10;20.53;;;9.90;;
42066;SDS011;27734;47.028;28.820;2022-11-20T08:03:41;20.60;;;10.05;;
42066;SDS011;27734;47.028;28.820;2022-11-20T08:06:12;19.53;;;9.77;;
42066;SDS011;27734;47.028;28.820;2022-11-20T08:08:43;17.53;;;8.87;;
42066;SDS011;27734;47.028;28.820;2022-11-20T08:11:15;20.80;;;9.83;;
42066;SDS011;27734;47.028;28.820;2022-11-20T08:14:03;21.27;;;10.50;;
42066;SDS011;27734;47.028;28.820;2022-11-20T08:16:41;19.83;;;10.10;;
42066;SDS011;27734;47.028;28.820;2022-11-20T08:19:14;21.80;;;12.37;;
42066;SDS011;27734;47.028;28.820;2022-11-20T08:21:46;23.20;;;12.07;;
42066;SDS011;27734;47.028;28.820;2022-11-20T08:24:17;24.13;;;13.07;;
42066;SDS011;27734;47.028;28.820;2022-11-20T08:26:48;25.37;;;12.63;;
42066;SDS011;27734;47.028;28.820;2022-11-20T08:29:20;21.90;;;12.20;;
42066;SDS011;27734;47.028;28.820;2022-11-20T08:31:51;24.37;;;13.10;;
42066;SDS011;27734;47.028;28.820;2022-11-20T08:34:38;25.03;;;13.90;;
42066;SDS011;27734;47.028;28.820;2022-11-20T08:37:09;24.70;;;12.70;;
42066;SDS011;27734;47.028;28.820;2022-11-20T08:39:40;24.50;;;13.43;;
42066;SDS011;27734;47.028;28.820;2022-11-20T08:42:11;25.00;;;13.40;;
42066;SDS011;27734;47.028;28.820;2022-11-20T08:44:43;26.40;;;14.65;;
42066;SDS011;27734;47.028;28.820;2022-11-20T08:47:14;23.77;;;12.87;;
42066;SDS011;27734;47.028;28.820;2022-11-20T08:49:45;26.53;;;14.23;;
42066;SDS011;27734;47.028;28.820;2022-11-20T08:52:16;26.87;;;14.53;;
42066;SDS011;27734;47.028;28.820;2022-11-20T08:54:47;26.37;;;14.20;;
42066;SDS011;27734;47.028;28.820;2022-11-20T08:57:18;24.40;;;11.95;;
42066;SDS011;27734;47.028;28.820;2022-11-20T08:59:49;24.27;;;12.83;;
42066;SDS011;27734;47.028;28.820;2022-11-20T09:02:20;24.37;;;11.93;;
42066;SDS011;27734;47.028;28.820;2022-11-20T09:04:51;23.30;;;11.45;;
42066;SDS011;27734;47.028;28.820;2022-11-20T09:07:22;19.43;;;9.93;;
42066;SDS011;27734;47.028;28.820;2022-11-20T09:09:54;25.57;;;12.30;;
42066;SDS011;27734;47.028;28.820;2022-11-20T09:12:25;21.90;;;11.70;;
42066;SDS011;27734;47.028;28.820;2022-11-20T09:14:56;22.67;;;11.80;;
42066;SDS011;27734;47.028;28.820;2022-11-20T09:17:27;24.05;;;12.95;;
42066;SDS011;27734;47.028;28.820;2022-11-20T09:19:58;22.53;;;11.77;;
42066;SDS011;27734;47.028;28.820;2022-11-20T09:22:29;22.80;;;12.30;;
42066;SDS011;27734;47.028;28.820;2022-11-20T09:25:01;22.40;;;11.17;;
42066;SDS011;27734;47.028;28.820;2022-11-20T09:27:32;21.23;;;10.50;;
42066;SDS011;27734;47.028;28.820;2022-11-20T09:30:04;22.47;;;12.30;;
42066;SDS011;27734;47.028;28.820;2022-11-20T09:32:36;22.13;;;11.97;;
42066;SDS011;27734;47.028;28.820;2022-11-20T09:35:09;25.50;;;13.43;;
42066;SDS011;27734;47.028;28.820;2022-11-20T09:37:42;24.70;;;12.85;;
42066;SDS011;27734;47.028;28.820;2022-11-20T09:40:17;25.00;;;12.27;;
42066;SDS011;27734;47.028;28.820;2022-11-20T09:42:54;23.70;;;12.20;;
42066;SDS011;27734;47.028;28.820;2022-11-20T09:45:35;22.63;;;11.70;;
42066;SDS011;27734;47.028;28.820;2022-11-20T09:48:20;22.30;;;11.33;;
42066;SDS011;27734;47.028;28.820;2022-11-20T09:51:04;24.17;;;11.97;;
42066;SDS011;27734;47.028;28.820;2022-11-20T09:53:45;23.70;;;11.17;;
42066;SDS011;27734;47.028;28.820;2022-11-20T09:56:22;23.17;;;11.10;;
42066;SDS011;27734;47.028;28.820;2022-11-20T09:58:55;22.23;;;11.00;;
42066;SDS011;27734;47.028;28.820;2022-11-20T10:01:35;21.50;;;10.35;;
42066;SDS011;27734;47.028;28.820;2022-11-20T10:04:10;22.00;;;11.00;;
42066;SDS011;27734;47.028;28.820;2022-11-20T10:06:47;23.37;;;11.90;;
42066;SDS011;27734;47.028;28.820;2022-11-20T10:09:27;22.80;;;11.00;;
42066;SDS011;27734;47.028;28.820;2022-11-20T10:12:05;22.37;;;11.43;;
42066;SDS011;27734;47.028;28.820;2022-11-20T10:14:52;24.50;;;12.27;;
42066;SDS011;27734;47.028;28.820;2022-11-20T10:17:46;22.20;;;11.40;;
42066;SDS011;27734;47.028;28.820;2022-11-20T10:20:33;26.70;;;12.57;;
42066;SDS011;27734;47.028;28.820;2022-11-20T10:23:18;24.40;;;12.07;;
42066;SDS011;27734;47.028;28.820;2022-11-20T10:26:03;25.87;;;12.90;;
42066;SDS011;27734;47.028;28.820;2022-11-20T10:28:48;25.30;;;13.07;;
42066;SDS011;27734;47.028;28.820;2022-11-20T10:31:37;26.50;;;13.70;;
42066;SDS011;27734;47.028;28.820;2022-11-20T10:34:14;25.80;;;13.37;;
42066;SDS011;27734;47.028;28.820;2022-11-20T10:36:52;28.63;;;13.20;;
42066;SDS011;27734;47.028;28.820;2022-11-20T10:39:31;28.60;;;14.63;;
42066;SDS011;27734;47.028;28.820;2022-11-20T10:42:10;28.50;;;15.57;;
42066;SDS011;27734;47.028;28.820;2022-11-20T10:44:47;28.20;;;14.40;;
42066;SDS011;27734;47.028;28.820;2022-11-20T10:47:35;28.73;;;13.83;;
42066;SDS011;27734;47.028;28.820;2022-11-20T10:50:09;26.40;;;13.97;;
42066;SDS011;27734;47.028;28.820;2022-11-20T10:52:47;27.27;;;13.63;;
42066;SDS011;27734;47.028;28.820;2022-11-20T10:55:28;26.20;;;13.80;;
42066;SDS011;27734;47.028;28.820;2022-11-20T10:58:13;25.63;;;13.30;;
42066;SDS011;27734;47.028;28.820;2022-11-20T11:00:49;27.17;;;13.60;;
42066;SDS011;27734;47.028;28.820;2022-11-20T11:03:22;25.35;;;13.45;;
42066;SDS011;27734;47.028;28.820;2022-11-20T11:05:58;29.57;;;14.67;;
42066;SDS011;27734;47.028;28.820;2022-11-20T11:08:35;28.67;;;14.53;;
42066;SDS011;27734;47.028;28.820;2022-11-20T11:11:10;27.90;;;13.90;;
42066;SDS011;27734;47.028;28.820;2022-11-20T11:13:50;25.90;;;13.20;;
42066;SDS011;27734;47.028;28.820;2022-11-20T11:16:23;24.93;;;13.03;;
42066;SDS011;27734;47.028;28.820;2022-11-20T11:19:04;27.80;;;14.10;;
42066;SDS011;27734;47.028;28.820;2022-11-20T11:21:45;26.70;;;12.95;;
42066;SDS011;27734;47.028;28.820;2022-11-20T11:24:20;24.07;;;11.83;;
42066;SDS011;27734;47.028;28.820;2022-11-20T11:26:57;26.87;;;12.87;;
42066;SDS011;27734;47.028;28.820;2022-11-20T11:29:32;28.97;;;13.53;;
42066;SDS011;27734;47.028;28.820;2022-11-20T11:32:05;28.35;;;13.70;;
42066;SDS011;27734;47.028;28.820;2022-11-20T11:34:37;26.27;;;12.28;;
42066;SDS011;27734;47.028;28.820;2022-11-20T11:37:13;25.90;;;13.43;;
42066;SDS011;27734;47.028;28.820;2022-11-20T11:39:47;24.63;;;12.70;;
42066;SDS011;27734;47.028;28.820;2022-11-20T11:42:19;24.40;;;11.83;;
42066;SDS011;27734;47.028;28.820;2022-11-20T11:44:51;25.27;;;11.77;;
42066;SDS011;27734;47.028;28.820;2022-11-20T11:47:35;23.15;;;11.90;;
42066;SDS011;27734;47.028;28.820;2022-11-20T11:50:17;26.30;;;12.67;;
42066;SDS011;27734;47.028;28.820;2022-11-20T11:53:02;27.10;;;13.07;;
42066;SDS011;27734;47.028;28.820;2022-11-20T11:55:42;24.10;;;12.10;;
42066;SDS011;27734;47.028;28.820;2022-11-20T11:58:19;23.00;;;11.55;;
42066;SDS011;27734;47.028;28.820;2022-11-20T12:01:07;22.87;;;11.93;;
42066;SDS011;27734;47.028;28.820;2022-11-20T12:03:50;22.27;;;10.57;;
42066;SDS011;27734;47.028;28.820;2022-11-20T12:06:28;21.77;;;11.40;;
42066;SDS011;27734;47.028;28.820;2022-11-20T12:11:37;25.37;;;12.63;;
42066;SDS011;27734;47.028;28.820;2022-11-20T12:14:14;28.47;;;14.17;;
42066;SDS011;27734;47.028;28.820;2022-11-20T12:16:52;23.73;;;12.37;;
42066;SDS011;27734;47.028;28.820;2022-11-20T12:19:25;22.45;;;11.10;;
42066;SDS011;27734;47.028;28.820;2022-11-20T12:22:02;20.10;;;9.53;;
42066;SDS011;27734;47.028;28.820;2022-11-20T12:24:51;20.80;;;9.70;;
42066;SDS011;27734;47.028;28.820;2022-11-20T12:30:27;20.53;;;9.67;;
42066;SDS011;27734;47.028;28.820;2022-11-20T12:33:04;21.73;;;10.97;;
42066;SDS011;27734;47.028;28.820;2022-11-20T12:35:48;19.80;;;10.30;;
42066;SDS011;27734;47.028;28.820;2022-11-20T12:38:36;22.33;;;11.03;;
42066;SDS011;27734;47.028;28.820;2022-11-20T12:41:22;21.90;;;10.50;;
42066;SDS011;27734;47.028;28.820;2022-11-20T12:44:30;21.37;;;10.80;;
42066;SDS011;27734;47.028;28.820;2022-11-20T12:47:33;22.90;;;10.57;;
42066;SDS011;27734;47.028;28.820;2022-11-20T12:50:17;21.80;;;11.08;;
42066;SDS011;27734;47.028;28.820;2022-11-20T12:52:59;20.25;;;9.60;;
42066;SDS011;27734;47.028;28.820;2022-11-20T12:55:35;23.10;;;11.63;;
42066;SDS011;27734;47.028;28.820;2022-11-20T12:58:17;23.10;;;12.17;;
42066;SDS011;27734;47.028;28.820;2022-11-20T13:01:00;21.40;;;10.97;;
42066;SDS011;27734;47.028;28.820;2022-11-20T13:03:58;22.75;;;11.40;;
42066;SDS011;27734;47.028;28.820;2022-11-20T13:06:36;22.10;;;10.25;;
42066;SDS011;27734;47.028;28.820;2022-11-20T13:09:10;19.80;;;10.70;;
42066;SDS011;27734;47.028;28.820;2022-11-20T13:11:47;22.33;;;10.83;;
42066;SDS011;27734;47.028;28.820;2022-11-20T13:14:31;21.20;;;10.10;;
42066;SDS011;27734;47.028;28.820;2022-11-20T13:17:09;19.30;;;9.60;;
42066;SDS011;27734;47.028;28.820;2022-11-20T13:19:52;20.70;;;9.80;;
42066;SDS011;27734;47.028;28.820;2022-11-20T13:22:26;21.30;;;10.60;;
42066;SDS011;27734;47.028;28.820;2022-11-20T13:24:59;20.50;;;10.57;;
42066;SDS011;27734;47.028;28.820;2022-11-20T13:27:30;22.67;;;11.77;;
42066;SDS011;27734;47.028;28.820;2022-11-20T13:30:02;24.70;;;11.77;;
42066;SDS011;27734;47.028;28.820;2022-11-20T13:32:52;22.67;;;10.90;;
42066;SDS011;27734;47.028;28.820;2022-11-20T13:35:29;23.20;;;11.00;;
42066;SDS011;27734;47.028;28.820;2022-11-20T13:38:03;22.25;;;10.85;;
42066;SDS011;27734;47.028;28.820;2022-11-20T13:40:38;23.13;;;11.17;;
42066;SDS011;27734;47.028;28.820;2022-11-20T13:43:21;20.80;;;10.70;;
42066;SDS011;27734;47.028;28.820;2022-11-20T13:45:58;20.97;;;9.47;;
42066;SDS011;27734;47.028;28.820;2022-11-20T13:48:31;21.57;;;10.10;;
42066;SDS011;27734;47.028;28.820;2022-11-20T13:51:09;21.37;;;9.97;;
42066;SDS011;27734;47.028;28.820;2022-11-20T13:53:57;22.85;;;11.10;;
42066;SDS011;27734;47.028;28.820;2022-11-20T13:57:01;24.20;;;10.83;;
42066;SDS011;27734;47.028;28.820;2022-11-20T14:02:25;26.73;;;12.40;;
42066;SDS011;27734;47.028;28.820;2022-11-20T14:04:58;25.07;;;12.30;;
42066;SDS011;27734;47.028;28.820;2022-11-20T14:07:34;28.70;;;12.90;;
42066;SDS011;27734;47.028;28.820;2022-11-20T14:10:19;21.77;;;10.63;;
42066;SDS011;27734;47.028;28.820;2022-11-20T14:12:52;24.12;;;11.40;;
42066;SDS011;27734;47.028;28.820;2022-11-20T14:15:25;24.00;;;11.20;;
42066;SDS011;27734;47.028;28.820;2022-11-20T14:17:59;29.23;;;12.97;;
42066;SDS011;27734;47.028;28.820;2022-11-20T14:20:41;32.90;;;17.93;;
42066;SDS011;27734;47.028;28.820;2022-11-20T14:23:22;24.70;;;11.37;;
42066;SDS011;27734;47.028;28.820;2022-11-20T14:25:55;23.57;;;11.20;;
42066;SDS011;27734;47.028;28.820;2022-11-20T14:28:27;25.10;;;11.70;;
42066;SDS011;27734;47.028;28.820;2022-11-20T14:31:00;24.15;;;10.60;;
42066;SDS011;27734;47.028;28.820;2022-11-20T14:33:32;24.07;;;11.93;;
42066;SDS011;27734;47.028;28.820;2022-11-20T14:36:04;27.47;;;12.20;;
42066;SDS011;27734;47.028;28.820;2022-11-20T14:38:46;26.50;;;12.60;;
42066;SDS011;27734;47.028;28.820;2022-11-20T14:41:18;24.67;;;12.17;;
42066;SDS011;27734;47.028;28.820;2022-11-20T14:43:52;24.17;;;12.00;;
42066;SDS011;27734;47.028;28.820;2022-11-20T14:46:26;26.60;;;12.17;;
42066;SDS011;27734;47.028;28.820;2022-11-20T14:49:00;31.73;;;15.23;;
42066;SDS011;27734;47.028;28.820;2022-11-20T14:51:34;27.75;;;13.30;;
42066;SDS011;27734;47.028;28.820;2022-11-20T14:54:13;26.27;;;12.37;;
42066;SDS011;27734;47.028;28.820;2022-11-20T14:56:54;24.23;;;10.90;;
42066;SDS011;27734;47.028;28.820;2022-11-20T14:59:27;24.00;;;10.57;;
42066;SDS011;27734;47.028;28.820;2022-11-20T15:02:00;25.73;;;11.80;;